Time,TemperatureF,DewpointF,PressureIn,WindDirection,WindDirectionDegrees,WindSpeedMPH,WindSpeedGustMPH,Humidity,HourlyPrecipIn,Conditions,Clouds,dailyrainin,SoftwareType,DateUTC
2013-08-01 00:00:00,79.2,50.7,29.79,NE,38,0.0,0.0,37,0.00,,,0.00,Wunderground v.1.15,2013-08-01 06:00:00,
2013-08-01 00:10:00,79.0,49.8,29.79,NE,38,1.0,3.0,36,0.00,,,0.00,Wunderground v.1.15,2013-08-01 06:10:00,
2013-08-01 00:20:00,79.0,49.8,29.79,NE,38,1.0,2.0,36,0.00,,,0.00,Wunderground v.1.15,2013-08-01 06:20:00,
2013-08-01 00:30:00,78.8,50.3,29.79,NE,38,1.0,1.0,37,0.00,,,0.00,Wunderground v.1.15,2013-08-01 06:30:00,
2013-08-01 00:40:00,78.6,50.9,29.79,NNE,33,1.0,2.0,38,0.00,,,0.00,Wunderground v.1.15,2013-08-01 06:40:00,
2013-08-01 00:50:00,78.6,50.1,29.79,NNE,33,1.0,1.0,37,0.00,,,0.00,Wunderground v.1.15,2013-08-01 06:50:00,
2013-08-01 01:00:00,78.8,50.3,29.79,North,11,1.0,1.0,37,0.00,,,0.00,Wunderground v.1.15,2013-08-01 07:00:00,
2013-08-01 01:10:00,78.8,51.0,29.79,NW,323,1.0,1.0,38,0.00,,,0.00,Wunderground v.1.15,2013-08-01 07:10:00,
2013-08-01 01:20:00,78.6,50.9,29.79,NW,323,0.0,0.0,38,0.00,,,0.00,Wunderground v.1.15,2013-08-01 07:20:00,
2013-08-01 01:30:00,78.6,50.9,29.79,NW,323,0.0,0.0,38,0.00,,,0.00,Wunderground v.1.15,2013-08-01 07:30:00,
2013-08-01 01:40:00,78.5,51.5,29.79,NW,323,1.0,1.0,39,0.00,,,0.00,Wunderground v.1.15,2013-08-01 07:40:00,
2013-08-01 02:00:00,77.7,52.1,29.79,NW,311,1.0,1.0,41,0.00,,,0.00,Wunderground v.1.15,2013-08-01 08:00:00,
2013-08-01 02:10:00,77.2,51.7,29.79,NW,309,1.0,3.0,41,0.00,,,0.00,Wunderground v.1.15,2013-08-01 08:10:00,
2013-08-01 02:20:00,77.0,52.1,29.79,NW,306,2.0,2.0,42,0.00,,,0.00,Wunderground v.1.15,2013-08-01 08:20:00,
2013-08-01 02:40:00,76.7,52.5,29.79,NW,306,0.0,0.0,43,0.00,,,0.00,Wunderground v.1.15,2013-08-01 08:40:00,
2013-08-01 03:10:00,76.0,53.7,29.80,NW,321,1.0,1.0,46,0.00,,,0.00,Wunderground v.1.15,2013-08-01 09:10:00,
2013-08-01 03:20:00,76.0,53.1,29.80,NW,321,0.0,1.0,45,0.00,,,0.00,Wunderground v.1.15,2013-08-01 09:20:00,
2013-08-01 04:10:00,75.8,52.3,29.79,NNW,340,1.0,1.0,44,0.00,,,0.00,Wunderground v.1.15,2013-08-01 10:10:00,
2013-08-01 04:40:00,75.3,52.5,29.79,NNW,345,3.0,3.0,45,0.00,,,0.00,Wunderground v.1.15,2013-08-01 10:40:00,
2013-08-01 04:50:00,74.9,52.1,29.79,North,10,3.0,4.0,45,0.00,,,0.00,Wunderground v.1.15,2013-08-01 10:50:00,
2013-08-01 05:20:00,73.5,53.7,29.79,NNE,23,6.0,7.0,50,0.00,,,0.00,Wunderground v.1.15,2013-08-01 11:20:00,
2013-08-01 06:00:00,70.8,55.8,29.79,NE,37,5.0,6.0,59,0.00,,,0.00,Wunderground v.1.15,2013-08-01 12:00:00,
2013-08-01 06:10:00,70.3,56.2,29.80,North,5,7.0,7.0,61,0.00,,,0.00,Wunderground v.1.15,2013-08-01 12:10:00,
2013-08-01 06:30:00,69.1,56.4,29.81,NE,40,4.0,5.0,64,0.00,,,0.00,Wunderground v.1.15,2013-08-01 12:30:00,
2013-08-01 06:40:00,68.9,56.6,29.81,NNE,31,5.0,5.0,65,0.00,,,0.00,Wunderground v.1.15,2013-08-01 12:40:00,
2013-08-01 07:00:00,68.9,56.2,29.82,NE,42,3.0,3.0,64,0.00,,,0.00,Wunderground v.1.15,2013-08-01 13:00:00,
2013-08-01 07:10:00,69.1,56.4,29.83,NE,41,1.0,1.0,64,0.00,,,0.00,Wunderground v.1.15,2013-08-01 13:10:00,
2013-08-01 07:50:00,72.0,57.4,29.84,SSW,200,1.0,1.0,60,0.00,,,0.00,Wunderground v.1.15,2013-08-01 13:50:00,
2013-08-01 08:30:00,73.5,55.3,29.85,South,184,4.0,4.0,53,0.00,,,0.00,Wunderground v.1.15,2013-08-01 14:30:00,
2013-08-01 08:50:00,73.9,54.6,29.84,SSE,162,3.0,6.0,51,0.00,,,0.00,Wunderground v.1.15,2013-08-01 14:50:00,
2013-08-01 09:00:00,74.0,55.3,29.84,SW,214,3.0,3.0,52,0.00,,,0.00,Wunderground v.1.15,2013-08-01 15:00:00,
2013-08-01 09:10:00,73.9,56.2,29.85,SW,229,3.0,4.0,54,0.00,,,0.00,Wunderground v.1.15,2013-08-01 15:10:00,
2013-08-01 09:20:00,73.7,56.5,29.85,SW,226,2.0,3.0,55,0.00,,,0.00,Wunderground v.1.15,2013-08-01 15:20:00,
2013-08-01 09:30:00,74.0,55.8,29.85,SSW,211,1.0,2.0,53,0.00,,,0.00,Wunderground v.1.15,2013-08-01 15:30:00,
2013-08-01 10:30:00,76.5,53.6,29.84,SSW,198,0.0,0.0,45,0.00,,,0.00,Wunderground v.1.15,2013-08-01 16:30:00,
2013-08-01 10:40:00,76.5,54.2,29.85,SSW,198,1.0,2.0,46,0.00,,,0.00,Wunderground v.1.15,2013-08-01 16:40:00,
2013-08-01 10:50:00,76.5,54.2,29.85,SSW,213,1.0,1.0,46,0.00,,,0.00,Wunderground v.1.15,2013-08-01 16:50:00,
2013-08-01 11:20:00,77.0,54.0,29.84,SW,229,1.0,1.0,45,0.00,,,0.00,Wunderground v.1.15,2013-08-01 17:20:00,
2013-08-01 11:40:00,76.3,55.2,29.84,SW,229,0.0,1.0,48,0.00,,,0.00,Wunderground v.1.15,2013-08-01 17:40:00,
2013-08-01 11:50:00,76.8,53.8,29.84,SW,229,1.0,1.0,45,0.00,,,0.00,Wunderground v.1.15,2013-08-01 17:50:00,
2013-08-01 12:10:00,79.8,53.3,29.83,North,5,1.0,2.0,40,0.00,,,0.00,Wunderground v.1.15,2013-08-01 18:10:00,
2013-08-01 12:20:00,79.9,50.6,29.83,NNE,32,3.0,3.0,36,0.00,,,0.00,Wunderground v.1.15,2013-08-01 18:20:00,
2013-08-01 12:40:00,79.4,54.3,29.81,NNE,13,2.0,4.0,42,0.00,,,0.00,Wunderground v.1.15,2013-08-01 18:40:00,
2013-08-01 13:00:00,80.1,52.9,29.80,NE,56,2.0,2.0,39,0.00,,,0.00,Wunderground v.1.15,2013-08-01 19:00:00,
2013-08-01 13:10:00,80.7,53.4,29.80,NE,46,3.0,3.0,39,0.00,,,0.00,Wunderground v.1.15,2013-08-01 19:10:00,
2013-08-01 13:30:00,82.6,52.2,29.78,ENE,75,3.0,3.0,35,0.00,,,0.00,Wunderground v.1.15,2013-08-01 19:30:00,
2013-08-01 13:50:00,84.0,52.6,29.78,ESE,114,2.0,2.0,34,0.00,,,0.00,Wunderground v.1.15,2013-08-01 19:50:00,
2013-08-01 14:00:00,85.1,51.1,29.77,NE,55,2.0,2.0,31,0.00,,,0.00,Wunderground v.1.15,2013-08-01 20:00:00,
2013-08-01 14:20:00,85.7,51.6,29.77,South,182,2.0,2.0,31,0.00,,,0.00,Wunderground v.1.15,2013-08-01 20:20:00,
2013-08-01 14:30:00,85.5,53.1,29.76,South,180,4.0,4.0,33,0.00,,,0.00,Wunderground v.1.15,2013-08-01 20:30:00,
2013-08-01 14:40:00,85.1,52.8,29.75,ESE,103,3.0,3.0,33,0.00,,,0.00,Wunderground v.1.15,2013-08-01 20:40:00,
2013-08-01 14:50:00,85.7,53.3,29.75,SSE,156,5.0,5.0,33,0.00,,,0.00,Wunderground v.1.15,2013-08-01 20:50:00,
2013-08-01 15:00:00,86.7,52.4,29.74,ESE,111,4.0,4.0,31,0.00,,,0.00,Wunderground v.1.15,2013-08-01 21:00:00,
2013-08-01 15:10:00,87.8,52.5,29.73,SW,217,4.0,4.0,30,0.00,,,0.00,Wunderground v.1.15,2013-08-01 21:10:00,
2013-08-01 15:40:00,82.8,54.6,29.74,West,272,9.0,13.0,38,0.00,,,0.00,Wunderground v.1.15,2013-08-01 21:40:00,
2013-08-01 15:50:00,79.2,56.6,29.74,West,273,10.0,10.0,46,0.00,,,0.00,Wunderground v.1.15,2013-08-01 21:50:00,
2013-08-01 16:00:00,79.6,55.1,29.74,WSW,257,7.0,7.0,43,0.00,,,0.00,Wunderground v.1.15,2013-08-01 22:00:00,
2013-08-01 16:10:00,78.8,56.9,29.74,WNW,300,7.0,7.0,47,0.00,,,0.00,Wunderground v.1.15,2013-08-01 22:10:00,
2013-08-01 16:20:00,79.2,55.4,29.74,West,275,6.0,9.0,44,0.00,,,0.00,Wunderground v.1.15,2013-08-01 22:20:00,
2013-08-01 16:30:00,79.4,55.0,29.74,WNW,285,7.0,9.0,43,0.00,,,0.00,Wunderground v.1.15,2013-08-01 22:30:00,
2013-08-01 16:40:00,79.6,55.1,29.74,NW,306,7.0,7.0,43,0.00,,,0.00,Wunderground v.1.15,2013-08-01 22:40:00,
2013-08-01 16:50:00,79.6,55.8,29.74,NW,311,6.0,6.0,44,0.00,,,0.00,Wunderground v.1.15,2013-08-01 22:50:00,
2013-08-01 17:00:00,80.5,55.3,29.74,West,275,5.0,5.0,42,0.00,,,0.00,Wunderground v.1.15,2013-08-01 23:00:00,
2013-08-01 17:10:00,80.5,54.6,29.74,NW,309,5.0,5.0,41,0.00,,,0.00,Wunderground v.1.15,2013-08-01 23:10:00,
2013-08-01 17:20:00,80.3,55.1,29.74,NW,307,3.0,3.0,42,0.00,,,0.00,Wunderground v.1.15,2013-08-01 23:20:00,
2013-08-01 17:30:00,77.0,56.9,29.75,NNE,30,8.0,8.0,50,0.00,,,0.00,Wunderground v.1.15,2013-08-01 23:30:00,
2013-08-01 17:40:00,76.0,57.1,29.75,NE,38,7.0,7.0,52,0.00,,,0.00,Wunderground v.1.15,2013-08-01 23:40:00,
2013-08-01 18:00:00,75.6,56.7,29.75,NE,51,7.0,8.0,52,0.00,,,0.00,Wunderground v.1.15,2013-08-02 00:00:00,
2013-08-01 18:10:00,77.0,56.4,29.74,North,10,7.0,8.0,49,0.00,,,0.00,Wunderground v.1.15,2013-08-02 00:10:00,
2013-08-01 18:30:00,78.5,54.8,29.73,NE,48,6.0,6.0,44,0.00,,,0.00,Wunderground v.1.15,2013-08-02 00:30:00,
2013-08-01 18:40:00,78.3,54.6,29.73,NNE,23,5.0,7.0,44,0.00,,,0.00,Wunderground v.1.15,2013-08-02 00:40:00,
2013-08-01 18:50:00,78.6,54.2,29.73,NE,51,5.0,6.0,43,0.00,,,0.00,Wunderground v.1.15,2013-08-02 00:50:00,
2013-08-01 19:00:00,78.8,52.4,29.73,NNE,32,5.0,5.0,40,0.00,,,0.00,Wunderground v.1.15,2013-08-02 01:00:00,
2013-08-01 19:10:00,78.8,52.4,29.73,NNE,28,3.0,3.0,40,0.00,,,0.00,Wunderground v.1.15,2013-08-02 01:10:00,
2013-08-01 19:20:00,78.6,52.3,29.73,NNE,27,2.0,3.0,40,0.00,,,0.00,Wunderground v.1.15,2013-08-02 01:20:00,
2013-08-01 19:40:00,78.6,52.9,29.75,NNE,31,0.0,1.0,41,0.00,,,0.00,Wunderground v.1.15,2013-08-02 01:40:00,
2013-08-01 19:50:00,78.3,54.6,29.75,SSW,212,2.0,6.0,44,0.00,,,0.00,Wunderground v.1.15,2013-08-02 01:50:00,
2013-08-01 20:00:00,76.1,56.7,29.78,SW,236,7.0,7.0,51,0.00,,,0.00,Wunderground v.1.15,2013-08-02 02:00:00,
2013-08-01 20:10:00,72.5,61.3,29.79,West,273,9.0,9.0,68,0.00,,,0.00,Wunderground v.1.15,2013-08-02 02:10:00,
2013-08-01 20:20:00,69.3,61.4,29.79,West,277,6.0,6.0,76,0.00,,,0.01,Wunderground v.1.15,2013-08-02 02:20:00,
2013-08-01 20:30:00,68.8,62.0,29.78,West,277,1.0,1.0,79,0.00,,,0.01,Wunderground v.1.15,2013-08-02 02:30:00,
2013-08-01 20:50:00,68.4,62.7,29.77,West,277,0.0,0.0,82,0.00,,,0.01,Wunderground v.1.15,2013-08-02 02:50:00,
2013-08-01 21:00:00,68.6,63.2,29.77,West,277,0.0,0.0,83,0.00,,,0.01,Wunderground v.1.15,2013-08-02 03:00:00,
2013-08-01 21:10:00,68.8,63.8,29.77,West,277,1.0,2.0,84,0.00,,,0.01,Wunderground v.1.15,2013-08-02 03:10:00,
2013-08-01 21:20:00,68.8,63.4,29.77,West,277,1.0,1.0,83,0.00,,,0.01,Wunderground v.1.15,2013-08-02 03:20:00,
2013-08-01 21:30:00,68.9,61.8,29.78,WNW,285,2.0,3.0,78,0.00,,,0.01,Wunderground v.1.15,2013-08-02 03:30:00,
2013-08-01 21:40:00,69.6,61.7,29.79,WNW,288,4.0,5.0,76,0.00,,,0.01,Wunderground v.1.15,2013-08-02 03:40:00,
2013-08-01 22:00:00,69.8,61.5,29.79,WNW,298,1.0,1.0,75,0.00,,,0.01,Wunderground v.1.15,2013-08-02 04:00:00,
2013-08-01 22:10:00,69.8,61.5,29.80,WNW,298,0.0,0.0,75,0.00,,,0.01,Wunderground v.1.15,2013-08-02 04:10:00,
2013-08-01 22:20:00,69.9,61.6,29.80,WNW,298,0.0,0.0,75,0.00,,,0.02,Wunderground v.1.15,2013-08-02 04:20:00,
2013-08-01 22:30:00,69.8,61.9,29.80,WNW,298,0.0,1.0,76,0.00,,,0.02,Wunderground v.1.15,2013-08-02 04:30:00,
2013-08-01 22:40:00,69.1,62.7,29.80,North,355,1.0,1.0,80,0.00,,,0.02,Wunderground v.1.15,2013-08-02 04:40:00,
2013-08-01 22:50:00,68.8,62.4,29.80,North,355,1.0,2.0,80,0.00,,,0.02,Wunderground v.1.15,2013-08-02 04:50:00,
2013-08-01 23:00:00,68.4,62.3,29.80,North,5,1.0,1.0,81,0.00,,,0.02,Wunderground v.1.15,2013-08-02 05:00:00,
2013-08-01 23:10:00,68.3,62.2,29.79,North,5,1.0,1.0,81,0.00,,,0.02,Wunderground v.1.15,2013-08-02 05:10:00,
2013-08-01 23:20:00,68.1,62.0,29.79,North,5,1.0,1.0,81,0.00,,,0.02,Wunderground v.1.15,2013-08-02 05:20:00,
2013-08-01 23:30:00,68.1,62.4,29.79,North,5,0.0,0.0,82,0.00,,,0.00,Wunderground v.1.15,2013-08-02 05:30:00,
2013-08-01 23:40:00,67.8,62.1,29.78,North,5,1.0,1.0,82,0.00,,,0.00,Wunderground v.1.15,2013-08-02 05:40:00,
2013-08-01 23:50:00,67.6,62.3,29.78,North,9,1.0,2.0,83,0.00,,,0.00,Wunderground v.1.15,2013-08-02 05:50:00,